Portada
METAR-TAF:

METAR-TAF

Aeropuertos :

Castres, Francia

latitud: 43-33-25N, longitud: 2-17-21E, altitud: 239 m

Observación

El informe se hizo hace 24 minutos, a las 02:30 UTC
Viento 11 kt del oeste-noroeste
Temperatura 7°C
Humedad 87%
Presión 1026 hPa
Visibilidad 10 km o más
Escasas nubes a una altura de 1400 ft
Cielo cubierto a una altura de 4200 ft

METAR: LFCK 180230Z AUTO 29011KT 9999 FEW014 OVC042 07/05 Q1026

Hora: 03:54 (02:54 UTC)

Pronóstico

El informe se hizo hace 5 horas y 49 minutos, a las 21:05 UTC
Pronóstico válido del 17 a las 21 UTC al 18 a las 03 UTC
Viento 10 kt del noroeste
Visibilidad 10 km o más
Nubes dispersas a una altura de 3000 ft
Probabilidad 30% :
Temporalmente
del 17 a las 21 UTC al 17 a las 24 UTC
Cielo nuboso a una altura de 1400 ft
lluvia ligera, llovizna

TAF: LFCK 172105Z 1721/1803 31010KT 9999 SCT030 PROB30 TEMPO 1721/1724 -RADZ BKN014

Observaciones y pronósticos meteorológicos de más de 4000 aeropuertos (mensajes METAR y TAF).

Los puntos amarillos y rojos representan las estaciones disponibles.

Ponga el ratón en el punto deseado para ver el nombre de la estación.

Haga clic para ver las observaciones y los pronósticos meteorológicos.

Para cambiar el mapa : haga clic en los botones verdes con una cruz de color negro para hacer un zoom, en el botón verde con un guión para alejar o en las flechas verdes para mapas adyacentes.


METAR-TAF: